sensor_id;sensor_type;location;lat;lon;timestamp;P1;durP1;ratioP1;P2;durP2;ratioP2
21681;SDS011;11002;48.256;10.084;2022-10-04T00:00:57;1.23;;;1.10;;
21681;SDS011;11002;48.256;10.084;2022-10-04T00:03:35;1.27;;;1.17;;
21681;SDS011;11002;48.256;10.084;2022-10-04T00:06:11;1.17;;;1.00;;
21681;SDS011;11002;48.256;10.084;2022-10-04T00:08:43;1.67;;;1.10;;
21681;SDS011;11002;48.256;10.084;2022-10-04T00:11:17;1.30;;;1.00;;
21681;SDS011;11002;48.256;10.084;2022-10-04T00:13:48;1.13;;;0.97;;
21681;SDS011;11002;48.256;10.084;2022-10-04T00:16:20;1.17;;;1.08;;
21681;SDS011;11002;48.256;10.084;2022-10-04T00:18:59;1.35;;;1.20;;
21681;SDS011;11002;48.256;10.084;2022-10-04T00:33:44;1.95;;;1.10;;
21681;SDS011;11002;48.256;10.084;2022-10-04T00:36:35;1.52;;;1.30;;
21681;SDS011;11002;48.256;10.084;2022-10-04T00:45:31;1.20;;;1.10;;
21681;SDS011;11002;48.256;10.084;2022-10-04T00:50:55;1.30;;;1.20;;
21681;SDS011;11002;48.256;10.084;2022-10-04T00:53:41;1.58;;;1.20;;
21681;SDS011;11002;48.256;10.084;2022-10-04T00:56:17;1.65;;;1.30;;
21681;SDS011;11002;48.256;10.084;2022-10-04T01:02:00;1.48;;;1.30;;
21681;SDS011;11002;48.256;10.084;2022-10-04T01:04:32;1.70;;;1.35;;
21681;SDS011;11002;48.256;10.084;2022-10-04T01:07:07;1.42;;;1.27;;
21681;SDS011;11002;48.256;10.084;2022-10-04T01:09:38;1.33;;;1.20;;
21681;SDS011;11002;48.256;10.084;2022-10-04T01:12:16;1.20;;;1.10;;
21681;SDS011;11002;48.256;10.084;2022-10-04T01:14:54;1.50;;;1.20;;
21681;SDS011;11002;48.256;10.084;2022-10-04T01:17:30;1.52;;;1.23;;
21681;SDS011;11002;48.256;10.084;2022-10-04T01:19:57;1.42;;;1.33;;
21681;SDS011;11002;48.256;10.084;2022-10-04T01:22:33;1.85;;;1.73;;
21681;SDS011;11002;48.256;10.084;2022-10-04T01:25:02;1.38;;;1.20;;
21681;SDS011;11002;48.256;10.084;2022-10-04T01:27:31;1.40;;;1.20;;
21681;SDS011;11002;48.256;10.084;2022-10-04T01:30:01;1.92;;;1.10;;
21681;SDS011;11002;48.256;10.084;2022-10-04T01:32:33;1.48;;;1.38;;
21681;SDS011;11002;48.256;10.084;2022-10-04T01:35:02;1.27;;;1.17;;
21681;SDS011;11002;48.256;10.084;2022-10-04T01:37:32;1.40;;;1.30;;
21681;SDS011;11002;48.256;10.084;2022-10-04T01:40:00;1.80;;;1.30;;
21681;SDS011;11002;48.256;10.084;2022-10-04T01:42:28;1.60;;;1.50;;
21681;SDS011;11002;48.256;10.084;2022-10-04T01:45:01;1.27;;;1.17;;
21681;SDS011;11002;48.256;10.084;2022-10-04T01:47:34;2.10;;;1.40;;
21681;SDS011;11002;48.256;10.084;2022-10-04T01:50:08;1.40;;;1.10;;
21681;SDS011;11002;48.256;10.084;2022-10-04T01:52:41;2.10;;;1.38;;
21681;SDS011;11002;48.256;10.084;2022-10-04T01:55:13;1.45;;;1.33;;
21681;SDS011;11002;48.256;10.084;2022-10-04T01:57:44;1.30;;;1.20;;
21681;SDS011;11002;48.256;10.084;2022-10-04T02:00:14;1.25;;;1.15;;
21681;SDS011;11002;48.256;10.084;2022-10-04T02:02:44;1.30;;;1.20;;
21681;SDS011;11002;48.256;10.084;2022-10-04T02:05:18;1.57;;;1.37;;
21681;SDS011;11002;48.256;10.084;2022-10-04T02:07:59;1.30;;;1.20;;
21681;SDS011;11002;48.256;10.084;2022-10-04T02:10:29;1.30;;;1.20;;
21681;SDS011;11002;48.256;10.084;2022-10-04T02:13:00;1.35;;;1.25;;
21681;SDS011;11002;48.256;10.084;2022-10-04T02:15:31;1.30;;;1.20;;
21681;SDS011;11002;48.256;10.084;2022-10-04T02:18:04;2.10;;;1.40;;
21681;SDS011;11002;48.256;10.084;2022-10-04T02:20:37;1.30;;;1.20;;
21681;SDS011;11002;48.256;10.084;2022-10-04T02:23:08;1.38;;;1.27;;
21681;SDS011;11002;48.256;10.084;2022-10-04T02:25:37;1.45;;;1.35;;
21681;SDS011;11002;48.256;10.084;2022-10-04T02:28:07;1.85;;;1.30;;
21681;SDS011;11002;48.256;10.084;2022-10-04T02:30:36;1.42;;;1.20;;
21681;SDS011;11002;48.256;10.084;2022-10-04T02:33:05;1.48;;;1.30;;
21681;SDS011;11002;48.256;10.084;2022-10-04T02:35:33;1.48;;;1.38;;
21681;SDS011;11002;48.256;10.084;2022-10-04T02:38:06;1.92;;;1.15;;
21681;SDS011;11002;48.256;10.084;2022-10-04T02:40:40;1.02;;;1.02;;
21681;SDS011;11002;48.256;10.084;2022-10-04T02:43:13;1.30;;;1.20;;
21681;SDS011;11002;48.256;10.084;2022-10-04T02:45:48;1.43;;;1.33;;
21681;SDS011;11002;48.256;10.084;2022-10-04T02:51:14;1.30;;;1.20;;
21681;SDS011;11002;48.256;10.084;2022-10-04T02:53:47;1.25;;;1.15;;
21681;SDS011;11002;48.256;10.084;2022-10-04T02:56:22;1.52;;;1.20;;
21681;SDS011;11002;48.256;10.084;2022-10-04T02:58:50;1.25;;;1.15;;
21681;SDS011;11002;48.256;10.084;2022-10-04T03:01:23;1.20;;;1.10;;
21681;SDS011;11002;48.256;10.084;2022-10-04T03:03:53;1.23;;;1.13;;
21681;SDS011;11002;48.256;10.084;2022-10-04T03:06:21;1.30;;;1.20;;
21681;SDS011;11002;48.256;10.084;2022-10-04T03:08:58;1.30;;;1.20;;
21681;SDS011;11002;48.256;10.084;2022-10-04T03:11:29;1.50;;;1.40;;
21681;SDS011;11002;48.256;10.084;2022-10-04T03:14:00;1.20;;;1.10;;
21681;SDS011;11002;48.256;10.084;2022-10-04T03:16:35;1.30;;;1.20;;
21681;SDS011;11002;48.256;10.084;2022-10-04T03:19:05;1.23;;;1.15;;
21681;SDS011;11002;48.256;10.084;2022-10-04T03:21:33;1.30;;;1.20;;
21681;SDS011;11002;48.256;10.084;2022-10-04T03:24:05;1.48;;;1.38;;
21681;SDS011;11002;48.256;10.084;2022-10-04T03:26:35;1.25;;;1.15;;
21681;SDS011;11002;48.256;10.084;2022-10-04T03:29:06;1.50;;;1.38;;
21681;SDS011;11002;48.256;10.084;2022-10-04T03:31:36;1.40;;;1.30;;
21681;SDS011;11002;48.256;10.084;2022-10-04T03:34:11;1.15;;;1.10;;
21681;SDS011;11002;48.256;10.084;2022-10-04T03:36:40;1.50;;;1.40;;
21681;SDS011;11002;48.256;10.084;2022-10-04T03:39:10;1.30;;;1.20;;
21681;SDS011;11002;48.256;10.084;2022-10-04T03:41:38;1.50;;;1.35;;
21681;SDS011;11002;48.256;10.084;2022-10-04T03:44:06;1.30;;;1.20;;
21681;SDS011;11002;48.256;10.084;2022-10-04T03:46:40;1.30;;;1.20;;
21681;SDS011;11002;48.256;10.084;2022-10-04T03:49:10;1.50;;;1.23;;
21681;SDS011;11002;48.256;10.084;2022-10-04T03:51:42;1.42;;;1.33;;
21681;SDS011;11002;48.256;10.084;2022-10-04T03:54:17;1.30;;;1.20;;
21681;SDS011;11002;48.256;10.084;2022-10-04T03:56:49;1.48;;;1.38;;
21681;SDS011;11002;48.256;10.084;2022-10-04T03:59:18;1.40;;;1.30;;
21681;SDS011;11002;48.256;10.084;2022-10-04T04:01:47;1.40;;;1.30;;
21681;SDS011;11002;48.256;10.084;2022-10-04T04:04:20;1.20;;;1.10;;
21681;SDS011;11002;48.256;10.084;2022-10-04T04:06:58;1.38;;;1.25;;
21681;SDS011;11002;48.256;10.084;2022-10-04T04:09:32;1.38;;;1.00;;
21681;SDS011;11002;48.256;10.084;2022-10-04T04:12:08;1.20;;;1.00;;
21681;SDS011;11002;48.256;10.084;2022-10-04T04:14:39;1.23;;;1.10;;
21681;SDS011;11002;48.256;10.084;2022-10-04T04:17:28;1.40;;;1.30;;
21681;SDS011;11002;48.256;10.084;2022-10-04T04:20:02;1.20;;;0.95;;
21681;SDS011;11002;48.256;10.084;2022-10-04T04:22:33;1.38;;;1.25;;
21681;SDS011;11002;48.256;10.084;2022-10-04T04:25:05;1.50;;;1.40;;
21681;SDS011;11002;48.256;10.084;2022-10-04T04:27:37;1.25;;;1.15;;
21681;SDS011;11002;48.256;10.084;2022-10-04T04:30:07;1.40;;;1.25;;
21681;SDS011;11002;48.256;10.084;2022-10-04T04:32:41;1.25;;;1.15;;
21681;SDS011;11002;48.256;10.084;2022-10-04T04:35:19;1.27;;;1.17;;
21681;SDS011;11002;48.256;10.084;2022-10-04T04:38:00;1.25;;;1.15;;
21681;SDS011;11002;48.256;10.084;2022-10-04T04:40:34;1.30;;;1.20;;
21681;SDS011;11002;48.256;10.084;2022-10-04T04:43:02;1.30;;;1.20;;
21681;SDS011;11002;48.256;10.084;2022-10-04T04:45:30;1.30;;;1.20;;
21681;SDS011;11002;48.256;10.084;2022-10-04T04:47:58;1.20;;;1.10;;
21681;SDS011;11002;48.256;10.084;2022-10-04T04:50:29;1.30;;;1.20;;
21681;SDS011;11002;48.256;10.084;2022-10-04T04:53:02;1.08;;;1.08;;
21681;SDS011;11002;48.256;10.084;2022-10-04T04:55:36;1.30;;;1.20;;
21681;SDS011;11002;48.256;10.084;2022-10-04T04:58:09;1.27;;;1.13;;
21681;SDS011;11002;48.256;10.084;2022-10-04T05:00:43;1.10;;;1.10;;
21681;SDS011;11002;48.256;10.084;2022-10-04T05:03:16;1.15;;;1.05;;
21681;SDS011;11002;48.256;10.084;2022-10-04T05:05:45;1.13;;;1.02;;
21681;SDS011;11002;48.256;10.084;2022-10-04T05:08:14;1.20;;;1.10;;
21681;SDS011;11002;48.256;10.084;2022-10-04T05:10:48;1.20;;;1.10;;
21681;SDS011;11002;48.256;10.084;2022-10-04T05:13:19;1.10;;;1.00;;
21681;SDS011;11002;48.256;10.084;2022-10-04T05:15:51;1.25;;;1.15;;
21681;SDS011;11002;48.256;10.084;2022-10-04T05:18:24;1.13;;;1.02;;
21681;SDS011;11002;48.256;10.084;2022-10-04T05:20:55;1.15;;;1.10;;
21681;SDS011;11002;48.256;10.084;2022-10-04T05:23:25;1.77;;;0.98;;
21681;SDS011;11002;48.256;10.084;2022-10-04T05:25:54;1.20;;;1.10;;
21681;SDS011;11002;48.256;10.084;2022-10-04T05:28:25;1.42;;;0.93;;
21681;SDS011;11002;48.256;10.084;2022-10-04T05:33:54;1.08;;;1.00;;
21681;SDS011;11002;48.256;10.084;2022-10-04T05:36:30;1.40;;;1.20;;
21681;SDS011;11002;48.256;10.084;2022-10-04T05:39:08;1.30;;;1.08;;
21681;SDS011;11002;48.256;10.084;2022-10-04T05:41:47;1.10;;;1.00;;
21681;SDS011;11002;48.256;10.084;2022-10-04T05:44:23;1.00;;;0.90;;
21681;SDS011;11002;48.256;10.084;2022-10-04T05:46:56;0.93;;;0.93;;
21681;SDS011;11002;48.256;10.084;2022-10-04T05:49:27;1.13;;;1.02;;
21681;SDS011;11002;48.256;10.084;2022-10-04T05:52:00;1.20;;;1.10;;
21681;SDS011;11002;48.256;10.084;2022-10-04T05:54:31;1.67;;;1.00;;
21681;SDS011;11002;48.256;10.084;2022-10-04T06:00:07;1.30;;;1.20;;
21681;SDS011;11002;48.256;10.084;2022-10-04T06:03:01;1.05;;;1.00;;
21681;SDS011;11002;48.256;10.084;2022-10-04T06:05:43;2.50;;;1.20;;
21681;SDS011;11002;48.256;10.084;2022-10-04T06:08:18;0.90;;;0.90;;
21681;SDS011;11002;48.256;10.084;2022-10-04T06:17:04;1.67;;;1.35;;
21681;SDS011;11002;48.256;10.084;2022-10-04T06:20:01;1.35;;;1.25;;
21681;SDS011;11002;48.256;10.084;2022-10-04T06:22:51;1.10;;;1.00;;
21681;SDS011;11002;48.256;10.084;2022-10-04T06:27:53;1.30;;;1.20;;
21681;SDS011;11002;48.256;10.084;2022-10-04T06:30:23;1.13;;;0.93;;
21681;SDS011;11002;48.256;10.084;2022-10-04T06:41:52;1.20;;;1.10;;
21681;SDS011;11002;48.256;10.084;2022-10-04T06:47:40;1.48;;;1.38;;
21681;SDS011;11002;48.256;10.084;2022-10-04T06:50:26;3.38;;;1.30;;
21681;SDS011;11002;48.256;10.084;2022-10-04T06:53:07;2.13;;;1.60;;
21681;SDS011;11002;48.256;10.084;2022-10-04T07:01:56;2.42;;;2.22;;
21681;SDS011;11002;48.256;10.084;2022-10-04T07:04:29;2.75;;;1.63;;
21681;SDS011;11002;48.256;10.084;2022-10-04T07:07:14;2.85;;;1.90;;
21681;SDS011;11002;48.256;10.084;2022-10-04T07:10:00;2.45;;;1.80;;
21681;SDS011;11002;48.256;10.084;2022-10-04T07:12:41;1.55;;;1.42;;
21681;SDS011;11002;48.256;10.084;2022-10-04T07:15:15;1.85;;;1.58;;
21681;SDS011;11002;48.256;10.084;2022-10-04T07:17:47;1.90;;;1.60;;
21681;SDS011;11002;48.256;10.084;2022-10-04T07:20:17;2.90;;;1.48;;
21681;SDS011;11002;48.256;10.084;2022-10-04T07:22:50;1.27;;;1.10;;
21681;SDS011;11002;48.256;10.084;2022-10-04T07:25:22;1.77;;;1.48;;
21681;SDS011;11002;48.256;10.084;2022-10-04T07:27:54;1.50;;;1.40;;
21681;SDS011;11002;48.256;10.084;2022-10-04T07:30:40;1.40;;;1.30;;
21681;SDS011;11002;48.256;10.084;2022-10-04T07:33:13;2.08;;;1.30;;
21681;SDS011;11002;48.256;10.084;2022-10-04T07:35:45;4.18;;;1.35;;
21681;SDS011;11002;48.256;10.084;2022-10-04T07:38:18;1.60;;;1.48;;
21681;SDS011;11002;48.256;10.084;2022-10-04T07:40:58;2.08;;;1.55;;
21681;SDS011;11002;48.256;10.084;2022-10-04T07:43:34;1.42;;;1.33;;
21681;SDS011;11002;48.256;10.084;2022-10-04T07:46:13;2.35;;;1.30;;
21681;SDS011;11002;48.256;10.084;2022-10-04T07:51:17;1.08;;;1.08;;
21681;SDS011;11002;48.256;10.084;2022-10-04T07:53:54;1.75;;;1.35;;
21681;SDS011;11002;48.256;10.084;2022-10-04T07:56:29;1.83;;;1.20;;
21681;SDS011;11002;48.256;10.084;2022-10-04T08:01:58;1.40;;;1.30;;
21681;SDS011;11002;48.256;10.084;2022-10-04T08:04:38;1.20;;;1.10;;
21681;SDS011;11002;48.256;10.084;2022-10-04T08:07:14;1.38;;;1.10;;
21681;SDS011;11002;48.256;10.084;2022-10-04T08:09:49;1.25;;;1.15;;
21681;SDS011;11002;48.256;10.084;2022-10-04T08:12:27;1.35;;;1.20;;
21681;SDS011;11002;48.256;10.084;2022-10-04T08:18:04;1.42;;;1.10;;
21681;SDS011;11002;48.256;10.084;2022-10-04T08:20:46;1.48;;;1.10;;
21681;SDS011;11002;48.256;10.084;2022-10-04T08:23:22;1.08;;;1.08;;
21681;SDS011;11002;48.256;10.084;2022-10-04T08:26:09;1.42;;;1.10;;
21681;SDS011;11002;48.256;10.084;2022-10-04T08:28:49;1.13;;;1.05;;
21681;SDS011;11002;48.256;10.084;2022-10-04T08:31:54;1.30;;;1.10;;
21681;SDS011;11002;48.256;10.084;2022-10-04T08:34:32;1.45;;;1.35;;
21681;SDS011;11002;48.256;10.084;2022-10-04T08:37:13;1.40;;;1.10;;
21681;SDS011;11002;48.256;10.084;2022-10-04T08:39:54;1.92;;;1.20;;
21681;SDS011;11002;48.256;10.084;2022-10-04T08:42:38;1.15;;;1.08;;
21681;SDS011;11002;48.256;10.084;2022-10-04T08:45:42;1.13;;;0.93;;
21681;SDS011;11002;48.256;10.084;2022-10-04T08:57:54;1.48;;;1.05;;
21681;SDS011;11002;48.256;10.084;2022-10-04T09:00:34;1.08;;;1.05;;
21681;SDS011;11002;48.256;10.084;2022-10-04T09:06:34;0.70;;;0.70;;
21681;SDS011;11002;48.256;10.084;2022-10-04T09:09:16;1.20;;;1.10;;
21681;SDS011;11002;48.256;10.084;2022-10-04T09:12:11;1.10;;;1.00;;
21681;SDS011;11002;48.256;10.084;2022-10-04T09:15:01;1.13;;;1.02;;
21681;SDS011;11002;48.256;10.084;2022-10-04T09:17:45;1.10;;;1.00;;
21681;SDS011;11002;48.256;10.084;2022-10-04T09:20:21;1.10;;;0.93;;
21681;SDS011;11002;48.256;10.084;2022-10-04T09:23:02;2.53;;;1.05;;
21681;SDS011;11002;48.256;10.084;2022-10-04T09:25:46;1.35;;;0.90;;
21681;SDS011;11002;48.256;10.084;2022-10-04T09:28:37;1.13;;;1.02;;
21681;SDS011;11002;48.256;10.084;2022-10-04T09:31:32;0.90;;;0.90;;
21681;SDS011;11002;48.256;10.084;2022-10-04T09:34:26;1.38;;;1.10;;
21681;SDS011;11002;48.256;10.084;2022-10-04T09:37:20;1.30;;;1.20;;
21681;SDS011;11002;48.256;10.084;2022-10-04T09:46:33;1.10;;;1.00;;
21681;SDS011;11002;48.256;10.084;2022-10-04T09:49:27;0.80;;;0.80;;
21681;SDS011;11002;48.256;10.084;2022-10-04T09:52:12;1.40;;;1.30;;
21681;SDS011;11002;48.256;10.084;2022-10-04T09:54:57;1.60;;;1.00;;
21681;SDS011;11002;48.256;10.084;2022-10-04T09:57:42;1.20;;;1.10;;
21681;SDS011;11002;48.256;10.084;2022-10-04T10:00:18;1.40;;;1.30;;
21681;SDS011;11002;48.256;10.084;2022-10-04T10:06:11;1.20;;;0.95;;
21681;SDS011;11002;48.256;10.084;2022-10-04T10:08:56;1.10;;;1.08;;
21681;SDS011;11002;48.256;10.084;2022-10-04T10:11:31;1.15;;;1.05;;
21681;SDS011;11002;48.256;10.084;2022-10-04T10:23:27;1.10;;;1.10;;
21681;SDS011;11002;48.256;10.084;2022-10-04T10:26:15;1.00;;;1.00;;
21681;SDS011;11002;48.256;10.084;2022-10-04T10:29:20;1.35;;;1.02;;
21681;SDS011;11002;48.256;10.084;2022-10-04T10:32:21;1.05;;;0.95;;
21681;SDS011;11002;48.256;10.084;2022-10-04T10:35:32;1.00;;;1.00;;
21681;SDS011;11002;48.256;10.084;2022-10-04T10:38:22;0.90;;;0.90;;
21681;SDS011;11002;48.256;10.084;2022-10-04T10:41:06;1.27;;;1.17;;
21681;SDS011;11002;48.256;10.084;2022-10-04T10:43:56;0.98;;;0.98;;
21681;SDS011;11002;48.256;10.084;2022-10-04T10:46:42;0.90;;;0.90;;
21681;SDS011;11002;48.256;10.084;2022-10-04T10:49:33;1.20;;;1.10;;
21681;SDS011;11002;48.256;10.084;2022-10-04T10:52:37;1.10;;;1.00;;
21681;SDS011;11002;48.256;10.084;2022-10-04T10:58:38;1.10;;;1.00;;
21681;SDS011;11002;48.256;10.084;2022-10-04T11:01:38;1.05;;;0.95;;
21681;SDS011;11002;48.256;10.084;2022-10-04T11:04:32;1.02;;;0.93;;
21681;SDS011;11002;48.256;10.084;2022-10-04T11:10:12;0.95;;;0.90;;
21681;SDS011;11002;48.256;10.084;2022-10-04T11:13:17;0.88;;;0.88;;
21681;SDS011;11002;48.256;10.084;2022-10-04T11:16:05;1.13;;;0.80;;
21681;SDS011;11002;48.256;10.084;2022-10-04T11:28:20;1.25;;;0.93;;
21681;SDS011;11002;48.256;10.084;2022-10-04T11:31:16;1.00;;;1.00;;
21681;SDS011;11002;48.256;10.084;2022-10-04T11:37:29;0.90;;;0.90;;
21681;SDS011;11002;48.256;10.084;2022-10-04T11:40:12;1.10;;;0.80;;
21681;SDS011;11002;48.256;10.084;2022-10-04T11:48:45;1.10;;;0.80;;
21681;SDS011;11002;48.256;10.084;2022-10-04T11:51:33;1.00;;;1.00;;
21681;SDS011;11002;48.256;10.084;2022-10-04T11:54:25;0.73;;;0.73;;
21681;SDS011;11002;48.256;10.084;2022-10-04T11:57:18;0.70;;;0.65;;
21681;SDS011;11002;48.256;10.084;2022-10-04T12:05:26;1.05;;;0.95;;
21681;SDS011;11002;48.256;10.084;2022-10-04T12:08:13;0.88;;;0.85;;
21681;SDS011;11002;48.256;10.084;2022-10-04T12:10:48;0.90;;;0.90;;
21681;SDS011;11002;48.256;10.084;2022-10-04T12:14:13;0.82;;;0.82;;
21681;SDS011;11002;48.256;10.084;2022-10-04T12:16:59;0.68;;;0.68;;
21681;SDS011;11002;48.256;10.084;2022-10-04T12:19:53;0.90;;;0.70;;
21681;SDS011;11002;48.256;10.084;2022-10-04T12:22:43;1.73;;;1.13;;
21681;SDS011;11002;48.256;10.084;2022-10-04T12:31:25;1.52;;;0.77;;
21681;SDS011;11002;48.256;10.084;2022-10-04T12:33:59;1.33;;;0.80;;
21681;SDS011;11002;48.256;10.084;2022-10-04T12:36:48;1.13;;;1.02;;
21681;SDS011;11002;48.256;10.084;2022-10-04T12:42:34;1.00;;;0.70;;
21681;SDS011;11002;48.256;10.084;2022-10-04T12:45:19;2.85;;;0.93;;
21681;SDS011;11002;48.256;10.084;2022-10-04T12:47:56;1.80;;;1.15;;
21681;SDS011;11002;48.256;10.084;2022-10-04T12:50:39;1.73;;;1.00;;
21681;SDS011;11002;48.256;10.084;2022-10-04T12:53:27;1.50;;;0.80;;
21681;SDS011;11002;48.256;10.084;2022-10-04T12:56:06;1.25;;;1.00;;
21681;SDS011;11002;48.256;10.084;2022-10-04T13:01:46;1.85;;;0.80;;
21681;SDS011;11002;48.256;10.084;2022-10-04T13:04:30;1.02;;;0.95;;
21681;SDS011;11002;48.256;10.084;2022-10-04T13:07:12;2.60;;;0.98;;
21681;SDS011;11002;48.256;10.084;2022-10-04T13:10:00;1.80;;;0.95;;
21681;SDS011;11002;48.256;10.084;2022-10-04T13:12:42;1.80;;;0.85;;
21681;SDS011;11002;48.256;10.084;2022-10-04T13:15:33;1.17;;;0.93;;
21681;SDS011;11002;48.256;10.084;2022-10-04T13:18:08;2.13;;;0.98;;
21681;SDS011;11002;48.256;10.084;2022-10-04T13:20:48;2.67;;;0.98;;
21681;SDS011;11002;48.256;10.084;2022-10-04T13:23:25;1.75;;;0.88;;
21681;SDS011;11002;48.256;10.084;2022-10-04T13:29:13;1.50;;;0.95;;
21681;SDS011;11002;48.256;10.084;2022-10-04T13:31:51;1.00;;;0.82;;
21681;SDS011;11002;48.256;10.084;2022-10-04T13:34:27;0.77;;;0.77;;
21681;SDS011;11002;48.256;10.084;2022-10-04T13:37:05;1.20;;;0.90;;
21681;SDS011;11002;48.256;10.084;2022-10-04T13:39:48;2.10;;;1.10;;
21681;SDS011;11002;48.256;10.084;2022-10-04T13:42:44;0.88;;;0.88;;
21681;SDS011;11002;48.256;10.084;2022-10-04T13:45:28;1.80;;;0.80;;
21681;SDS011;11002;48.256;10.084;2022-10-04T13:48:14;1.08;;;0.90;;
21681;SDS011;11002;48.256;10.084;2022-10-04T13:51:05;3.47;;;0.80;;
21681;SDS011;11002;48.256;10.084;2022-10-04T13:53:55;1.02;;;0.93;;
21681;SDS011;11002;48.256;10.084;2022-10-04T13:56:53;1.65;;;0.98;;
21681;SDS011;11002;48.256;10.084;2022-10-04T13:59:28;3.92;;;1.05;;
21681;SDS011;11002;48.256;10.084;2022-10-04T14:02:09;0.98;;;0.80;;
21681;SDS011;11002;48.256;10.084;2022-10-04T14:10:51;2.13;;;1.03;;
21681;SDS011;11002;48.256;10.084;2022-10-04T14:14:09;0.60;;;0.60;;
21681;SDS011;11002;48.256;10.084;2022-10-04T14:17:04;1.15;;;0.85;;
21681;SDS011;11002;48.256;10.084;2022-10-04T14:22:52;2.05;;;0.80;;
21681;SDS011;11002;48.256;10.084;2022-10-04T14:28:52;1.73;;;1.10;;
21681;SDS011;11002;48.256;10.084;2022-10-04T14:31:45;0.95;;;0.85;;
21681;SDS011;11002;48.256;10.084;2022-10-04T14:40:19;3.25;;;1.05;;
21681;SDS011;11002;48.256;10.084;2022-10-04T14:43:10;0.93;;;0.90;;
21681;SDS011;11002;48.256;10.084;2022-10-04T14:45:58;0.95;;;0.80;;
21681;SDS011;11002;48.256;10.084;2022-10-04T14:48:39;1.63;;;0.90;;
21681;SDS011;11002;48.256;10.084;2022-10-04T14:51:21;0.90;;;0.80;;
21681;SDS011;11002;48.256;10.084;2022-10-04T14:54:03;1.17;;;0.80;;
21681;SDS011;11002;48.256;10.084;2022-10-04T14:59:30;1.02;;;0.68;;
21681;SDS011;11002;48.256;10.084;2022-10-04T15:08:36;1.00;;;0.90;;
21681;SDS011;11002;48.256;10.084;2022-10-04T15:11:33;1.13;;;0.80;;
21681;SDS011;11002;48.256;10.084;2022-10-04T15:14:19;1.05;;;0.90;;
21681;SDS011;11002;48.256;10.084;2022-10-04T15:16:59;1.58;;;0.77;;
21681;SDS011;11002;48.256;10.084;2022-10-04T15:19:30;2.10;;;1.08;;
21681;SDS011;11002;48.256;10.084;2022-10-04T15:22:05;2.63;;;0.80;;
21681;SDS011;11002;48.256;10.084;2022-10-04T15:24:46;1.05;;;0.80;;
21681;SDS011;11002;48.256;10.084;2022-10-04T15:27:35;1.00;;;0.80;;
21681;SDS011;11002;48.256;10.084;2022-10-04T15:30:22;0.80;;;0.80;;
21681;SDS011;11002;48.256;10.084;2022-10-04T15:33:04;0.60;;;0.60;;
21681;SDS011;11002;48.256;10.084;2022-10-04T15:35:46;0.77;;;0.70;;
21681;SDS011;11002;48.256;10.084;2022-10-04T15:38:35;0.93;;;0.80;;
21681;SDS011;11002;48.256;10.084;2022-10-04T15:41:14;1.65;;;0.95;;
21681;SDS011;11002;48.256;10.084;2022-10-04T15:43:48;1.35;;;0.70;;
21681;SDS011;11002;48.256;10.084;2022-10-04T15:46:39;0.70;;;0.70;;
21681;SDS011;11002;48.256;10.084;2022-10-04T15:49:17;0.70;;;0.70;;
21681;SDS011;11002;48.256;10.084;2022-10-04T15:55:14;0.88;;;0.70;;
21681;SDS011;11002;48.256;10.084;2022-10-04T15:57:54;0.60;;;0.60;;
21681;SDS011;11002;48.256;10.084;2022-10-04T16:00:38;0.82;;;0.73;;
21681;SDS011;11002;48.256;10.084;2022-10-04T16:03:23;0.60;;;0.60;;
21681;SDS011;11002;48.256;10.084;2022-10-04T16:06:00;1.10;;;0.60;;
21681;SDS011;11002;48.256;10.084;2022-10-04T16:08:42;1.20;;;0.80;;
21681;SDS011;11002;48.256;10.084;2022-10-04T16:11:25;0.77;;;0.60;;
21681;SDS011;11002;48.256;10.084;2022-10-04T16:14:18;1.02;;;0.80;;
21681;SDS011;11002;48.256;10.084;2022-10-04T16:23:25;0.60;;;0.60;;
21681;SDS011;11002;48.256;10.084;2022-10-04T16:25:55;0.80;;;0.80;;
21681;SDS011;11002;48.256;10.084;2022-10-04T16:31:24;0.57;;;0.57;;
21681;SDS011;11002;48.256;10.084;2022-10-04T16:34:15;0.95;;;0.65;;
21681;SDS011;11002;48.256;10.084;2022-10-04T16:36:53;1.33;;;0.70;;
21681;SDS011;11002;48.256;10.084;2022-10-04T16:39:34;1.42;;;0.60;;
21681;SDS011;11002;48.256;10.084;2022-10-04T16:42:22;2.03;;;0.77;;
21681;SDS011;11002;48.256;10.084;2022-10-04T16:44:55;0.63;;;0.63;;
21681;SDS011;11002;48.256;10.084;2022-10-04T16:47:29;0.70;;;0.68;;
21681;SDS011;11002;48.256;10.084;2022-10-04T16:50:00;0.77;;;0.70;;
21681;SDS011;11002;48.256;10.084;2022-10-04T16:52:37;0.65;;;0.65;;
21681;SDS011;11002;48.256;10.084;2022-10-04T16:58:40;0.88;;;0.63;;
21681;SDS011;11002;48.256;10.084;2022-10-04T17:01:28;0.60;;;0.57;;
21681;SDS011;11002;48.256;10.084;2022-10-04T17:04:24;0.75;;;0.70;;
21681;SDS011;11002;48.256;10.084;2022-10-04T17:07:12;1.00;;;0.90;;
21681;SDS011;11002;48.256;10.084;2022-10-04T17:09:48;0.70;;;0.68;;
21681;SDS011;11002;48.256;10.084;2022-10-04T17:12:23;0.82;;;0.60;;
21681;SDS011;11002;48.256;10.084;2022-10-04T17:15:20;0.70;;;0.70;;
21681;SDS011;11002;48.256;10.084;2022-10-04T17:17:59;0.70;;;0.70;;
21681;SDS011;11002;48.256;10.084;2022-10-04T17:20:45;0.80;;;0.70;;
21681;SDS011;11002;48.256;10.084;2022-10-04T17:23:26;0.80;;;0.80;;
21681;SDS011;11002;48.256;10.084;2022-10-04T17:26:12;0.82;;;0.70;;
21681;SDS011;11002;48.256;10.084;2022-10-04T17:28:48;0.77;;;0.77;;
21681;SDS011;11002;48.256;10.084;2022-10-04T17:31:25;1.33;;;0.60;;
21681;SDS011;11002;48.256;10.084;2022-10-04T17:34:01;0.60;;;0.60;;
21681;SDS011;11002;48.256;10.084;2022-10-04T17:36:38;0.88;;;0.63;;
21681;SDS011;11002;48.256;10.084;2022-10-04T17:39:21;1.05;;;0.80;;
21681;SDS011;11002;48.256;10.084;2022-10-04T17:47:48;0.85;;;0.77;;
21681;SDS011;11002;48.256;10.084;2022-10-04T17:50:43;0.98;;;0.90;;
21681;SDS011;11002;48.256;10.084;2022-10-04T17:53:36;0.95;;;0.75;;
21681;SDS011;11002;48.256;10.084;2022-10-04T17:56:26;0.70;;;0.63;;
21681;SDS011;11002;48.256;10.084;2022-10-04T17:58:58;0.80;;;0.80;;
21681;SDS011;11002;48.256;10.084;2022-10-04T18:01:32;0.95;;;0.77;;
21681;SDS011;11002;48.256;10.084;2022-10-04T18:04:06;0.70;;;0.70;;
21681;SDS011;11002;48.256;10.084;2022-10-04T18:06:40;0.75;;;0.75;;
21681;SDS011;11002;48.256;10.084;2022-10-04T18:09:20;0.88;;;0.75;;
21681;SDS011;11002;48.256;10.084;2022-10-04T18:11:53;0.80;;;0.70;;
21681;SDS011;11002;48.256;10.084;2022-10-04T18:14:44;1.05;;;0.80;;
21681;SDS011;11002;48.256;10.084;2022-10-04T18:17:21;0.65;;;0.65;;
21681;SDS011;11002;48.256;10.084;2022-10-04T18:19:58;0.90;;;0.85;;
21681;SDS011;11002;48.256;10.084;2022-10-04T18:22:40;1.27;;;0.80;;
21681;SDS011;11002;48.256;10.084;2022-10-04T18:25:14;0.80;;;0.70;;
21681;SDS011;11002;48.256;10.084;2022-10-04T18:27:46;0.85;;;0.80;;
21681;SDS011;11002;48.256;10.084;2022-10-04T18:30:17;0.70;;;0.70;;
21681;SDS011;11002;48.256;10.084;2022-10-04T18:32:46;0.70;;;0.70;;
21681;SDS011;11002;48.256;10.084;2022-10-04T18:35:25;1.00;;;0.90;;
21681;SDS011;11002;48.256;10.084;2022-10-04T18:37:54;0.68;;;0.68;;
21681;SDS011;11002;48.256;10.084;2022-10-04T18:40:26;0.70;;;0.70;;
21681;SDS011;11002;48.256;10.084;2022-10-04T18:42:59;1.90;;;0.98;;
21681;SDS011;11002;48.256;10.084;2022-10-04T18:45:27;1.05;;;0.90;;
21681;SDS011;11002;48.256;10.084;2022-10-04T18:47:56;0.77;;;0.77;;
21681;SDS011;11002;48.256;10.084;2022-10-04T18:50:30;0.85;;;0.70;;
21681;SDS011;11002;48.256;10.084;2022-10-04T18:53:06;0.70;;;0.70;;
21681;SDS011;11002;48.256;10.084;2022-10-04T18:55:50;0.68;;;0.68;;
21681;SDS011;11002;48.256;10.084;2022-10-04T18:58:31;0.80;;;0.80;;